Time;durP1;ratioP1;P1;durP2;ratioP2;P2;SDS_P1;SDS_P2;PMS_P1;PMS_P2;Temp;Humidity;BMP_temperature;BMP_pressure;BME280_temperature;BME280_humidity;BME280_pressure;Samples;Min_cycle;Max_cycle;Signal;HPM_P1;HPM_P2
2023/06/18 00:01:22;;;;;;;1999.90;999.90;;;21.30;90.00;;;;;;5051967;28;20021;-70
2023/06/18 00:03:50;;;;;;;1999.90;999.90;;;21.70;88.60;;;;;;5052902;28;20045;-70
2023/06/18 00:06:17;;;;;;;1999.90;999.90;;;21.90;88.10;;;;;;5052137;28;20128;-71
2023/06/18 00:08:46;;;;;;;1999.90;999.90;;;22.00;89.40;;;;;;5063740;28;20443;-69
2023/06/18 00:11:13;;;;;;;1999.90;999.90;;;22.10;87.90;;;;;;5052184;28;20029;-70
2023/06/18 00:13:41;;;;;;;1999.90;999.90;;;22.10;87.70;;;;;;5062124;28;20036;-71
2023/06/18 00:16:08;;;;;;;1999.90;999.90;;;22.30;87.80;;;;;;5058806;28;20036;-69
2023/06/18 00:18:35;;;;;;;1999.90;999.90;;;22.60;86.60;;;;;;5062976;28;20033;-71
2023/06/18 00:21:07;;;;;;;1999.90;999.90;;;22.90;87.10;;;;;;5057569;28;20036;-71
2023/06/18 00:23:35;;;;;;;1999.90;999.90;;;23.00;87.40;;;;;;5059108;28;20040;-70
2023/06/18 00:26:02;;;;;;;1999.90;999.90;;;23.50;86.70;;;;;;5059055;28;20025;-72
2023/06/18 00:28:31;;;;;;;1999.90;999.90;;;24.00;84.90;;;;;;5056064;28;20599;-70
2023/06/18 00:30:58;;;;;;;1999.90;999.90;;;24.20;85.00;;;;;;5055290;28;20561;-71
2023/06/18 00:33:25;;;;;;;1999.90;999.90;;;24.40;82.90;;;;;;5052942;28;20656;-70
2023/06/18 00:35:56;;;;;;;1999.90;999.90;;;24.70;82.10;;;;;;5060159;28;20016;-70
2023/06/18 00:38:26;;;;;;;1999.90;999.90;;;24.80;82.00;;;;;;5052804;28;20060;-70
2023/06/18 00:40:54;;;;;;;1999.90;999.90;;;25.00;81.80;;;;;;5047773;28;20092;-70
2023/06/18 00:43:21;;;;;;;1999.90;999.90;;;25.20;80.30;;;;;;5052664;28;20091;-70
2023/06/18 00:45:50;;;;;;;1999.90;999.90;;;25.30;80.60;;;;;;5049167;28;20031;-72
2023/06/18 00:48:17;;;;;;;1999.90;999.90;;;25.60;79.90;;;;;;5053418;28;20033;-70
2023/06/18 00:50:46;;;;;;;1999.90;999.90;;;26.00;77.90;;;;;;5049664;28;20094;-69
2023/06/18 00:53:13;;;;;;;1999.90;999.90;;;25.90;78.40;;;;;;5053941;28;20056;-71
2023/06/18 00:55:41;;;;;;;1999.90;999.90;;;25.70;78.40;;;;;;5054756;28;20024;-71
2023/06/18 00:58:09;;;;;;;1999.90;999.90;;;25.80;78.10;;;;;;5059051;28;20035;-69
2023/06/18 01:00:36;;;;;;;1999.90;999.90;;;26.10;77.70;;;;;;5054593;28;20228;-71
2023/06/18 01:03:09;;;;;;;1999.90;999.90;;;26.10;77.20;;;;;;5049122;28;20392;-69
2023/06/18 01:05:39;;;;;;;1999.90;999.90;;;26.50;75.80;;;;;;5052746;28;20049;-71
2023/06/18 01:08:07;;;;;;;1999.90;999.90;;;26.70;75.40;;;;;;5052932;28;20469;-70
2023/06/18 01:10:39;;;;;;;1999.90;999.90;;;26.80;75.80;;;;;;5055304;28;20029;-71
2023/06/18 01:13:10;;;;;;;1999.90;999.90;;;26.60;75.20;;;;;;5058516;28;20044;-70
2023/06/18 01:15:38;;;;;;;1999.90;999.90;;;26.60;75.10;;;;;;5051011;28;20122;-70
2023/06/18 01:18:08;;;;;;;1999.90;999.90;;;26.90;75.20;;;;;;5054771;28;20120;-70
2023/06/18 01:20:44;;;;;;;1999.90;999.90;;;27.10;74.30;;;;;;5056422;28;20392;-70
2023/06/18 01:23:27;;;;;;;1999.90;999.90;;;27.00;73.80;;;;;;5056534;28;20040;-70
2023/06/18 01:26:00;;;;;;;1999.90;999.90;;;26.90;74.10;;;;;;5056757;28;20029;-71
2023/06/18 01:28:29;;;;;;;1999.90;999.90;;;27.00;74.20;;;;;;5064942;28;20135;-70
2023/06/18 01:30:57;;;;;;;1999.90;999.90;;;27.40;73.40;;;;;;5056536;28;20098;-70
2023/06/18 01:33:25;;;;;;;1999.90;999.90;;;27.70;73.70;;;;;;5056058;28;20498;-71
2023/06/18 01:35:52;;;;;;;1999.90;999.90;;;28.00;72.90;;;;;;5054680;28;20098;-69
2023/06/18 01:38:39;;;;;;;1999.90;999.90;;;28.30;72.10;;;;;;5048390;28;20498;-67
2023/06/18 01:41:13;;;;;;;1999.90;999.90;;;28.40;70.60;;;;;;5056482;28;20051;-69
2023/06/18 01:43:52;;;;;;;1999.90;999.90;;;28.20;71.40;;;;;;5057170;28;20031;-69
2023/06/18 01:46:26;;;;;;;1999.90;999.90;;;28.10;71.00;;;;;;5054679;28;20115;-68
2023/06/18 01:49:03;;;;;;;1999.90;999.90;;;27.60;70.20;;;;;;5055247;28;20032;-70
2023/06/18 01:51:33;;;;;;;1999.90;999.90;;;27.60;71.30;;;;;;5050652;28;20056;-69
2023/06/18 01:54:03;;;;;;;1999.90;999.90;;;27.90;71.00;;;;;;5053617;28;20040;-68
2023/06/18 01:56:31;;;;;;;1999.90;999.90;;;27.60;70.10;;;;;;5047719;28;20028;-67
2023/06/18 01:58:58;;;;;;;1999.90;999.90;;;27.10;71.50;;;;;;5056133;28;20032;-71
2023/06/18 02:01:30;;;;;;;1999.90;999.90;;;27.30;72.60;;;;;;5055415;28;20545;-71
2023/06/18 02:03:57;;;;;;;1999.90;999.90;;;27.80;72.20;;;;;;5051128;28;20053;-70
2023/06/18 02:06:26;;;;;;;1999.90;999.90;;;28.20;71.10;;;;;;5039696;28;20556;-67
2023/06/18 02:08:53;;;;;;;1999.90;999.90;;;28.40;71.00;;;;;;5052215;28;20036;-68
2023/06/18 02:11:20;;;;;;;1999.90;999.90;;;28.70;71.60;;;;;;5049810;28;20025;-66
2023/06/18 02:13:48;;;;;;;1999.90;999.90;;;28.50;65.40;;;;;;5054602;28;20032;-68
2023/06/18 02:16:15;;;;;;;1999.90;999.90;;;27.40;66.20;;;;;;5053362;28;20037;-68
2023/06/18 02:18:42;;;;;;;1999.90;999.90;;;27.00;66.50;;;;;;5058675;28;20031;-69
2023/06/18 02:21:10;;;;;;;1999.90;999.90;;;25.20;67.40;;;;;;5052498;28;20476;-72
2023/06/18 02:23:37;;;;;;;1999.90;999.90;;;24.30;67.50;;;;;;5051507;28;20056;-69
2023/06/18 02:26:05;;;;;;;1999.90;999.90;;;24.30;68.30;;;;;;5051411;28;20059;-69
2023/06/18 02:28:32;;;;;;;1999.90;999.90;;;24.00;68.60;;;;;;5048521;28;20083;-70
2023/06/18 02:30:59;;;;;;;1999.90;999.90;;;23.60;69.20;;;;;;5049611;28;20029;-71
2023/06/18 02:33:27;;;;;;;1999.90;999.90;;;23.50;69.60;;;;;;5046060;28;20024;-70
2023/06/18 02:35:54;;;;;;;1999.90;999.90;;;23.80;69.60;;;;;;5051514;28;20475;-70
2023/06/18 02:38:21;;;;;;;1999.90;999.90;;;24.20;68.30;;;;;;5054704;28;20083;-71
2023/06/18 02:40:49;;;;;;;1999.90;999.90;;;24.20;68.40;;;;;;5053303;28;20056;-70
2023/06/18 02:43:16;;;;;;;1999.90;999.90;;;24.20;68.40;;;;;;5055898;28;20126;-69
2023/06/18 02:45:44;;;;;;;1999.90;999.90;;;23.40;67.90;;;;;;5050058;28;20136;-75
2023/06/18 02:48:11;;;;;;;1999.90;999.90;;;23.20;68.40;;;;;;5049191;28;20384;-71
2023/06/18 02:50:38;;;;;;;1999.90;999.90;;;22.90;68.80;;;;;;5051307;28;20043;-71
2023/06/18 02:53:05;;;;;;;1999.90;999.90;;;22.70;69.20;;;;;;5050921;28;20048;-74
2023/06/18 02:55:33;;;;;;;1999.90;999.90;;;22.70;68.80;;;;;;5052710;28;20075;-72
2023/06/18 02:58:02;;;;;;;1999.90;999.90;;;22.60;68.50;;;;;;5059064;28;20021;-73
2023/06/18 03:00:29;;;;;;;1999.90;999.90;;;22.30;69.20;;;;;;5055269;28;20024;-71
2023/06/18 03:02:56;;;;;;;1999.90;999.90;;;22.40;69.60;;;;;;5052591;28;20082;-74
2023/06/18 03:05:24;;;;;;;1999.90;999.90;;;22.30;69.60;;;;;;5049997;28;20029;-73
2023/06/18 03:07:51;;;;;;;1999.90;999.90;;;22.30;70.10;;;;;;5053216;28;20071;-72
2023/06/18 03:10:19;;;;;;;1999.90;999.90;;;22.40;70.50;;;;;;5052359;28;20035;-74
2023/06/18 03:12:47;;;;;;;1999.90;999.90;;;22.50;69.40;;;;;;5054804;28;20503;-71
2023/06/18 03:15:14;;;;;;;1999.90;999.90;;;22.30;69.10;;;;;;5060068;28;20093;-72
2023/06/18 03:17:41;;;;;;;1999.90;999.90;;;21.90;69.30;;;;;;5051384;28;20202;-72
2023/06/18 03:20:10;;;;;;;1999.90;999.90;;;21.60;69.90;;;;;;5055063;28;20031;-73
2023/06/18 03:22:38;;;;;;;1999.90;999.90;;;21.30;70.30;;;;;;5054660;28;20040;-72
2023/06/18 03:25:06;;;;;;;1999.90;999.90;;;21.10;70.20;;;;;;5057640;28;21552;-73
2023/06/18 03:27:33;;;;;;;1999.90;999.90;;;20.70;71.00;;;;;;5057750;28;20094;-73
2023/06/18 03:30:04;;;;;;;1999.90;999.90;;;20.60;71.80;;;;;;5055794;28;20029;-75
2023/06/18 03:32:31;;;;;;;1999.90;999.90;;;20.40;72.10;;;;;;5055278;28;20037;-72
2023/06/18 03:34:58;;;;;;;1999.90;999.90;;;20.00;72.60;;;;;;5059652;28;20017;-70
2023/06/18 03:37:28;;;;;;;1999.90;999.90;;;19.90;73.30;;;;;;5047843;28;20029;-70
2023/06/18 03:39:55;;;;;;;1999.90;999.90;;;19.70;74.00;;;;;;5055263;28;20499;-71
2023/06/18 03:42:22;;;;;;;1999.90;999.90;;;19.80;74.30;;;;;;5044835;28;20398;-76
2023/06/18 03:44:50;;;;;;;1999.90;999.90;;;19.90;74.30;;;;;;5059075;28;20028;-71
2023/06/18 03:47:17;;;;;;;1999.90;999.90;;;19.90;73.90;;;;;;5055707;28;20498;-70
2023/06/18 03:49:45;;;;;;;1999.90;999.90;;;19.60;74.00;;;;;;5064024;28;20438;-71
2023/06/18 03:52:12;;;;;;;1999.90;999.90;;;19.40;74.60;;;;;;5054061;28;20484;-68
2023/06/18 03:54:40;;;;;;;1999.90;999.90;;;19.30;75.20;;;;;;5062940;28;20036;-72
2023/06/18 03:57:08;;;;;;;1999.90;999.90;;;19.40;75.20;;;;;;5058197;28;20027;-72
2023/06/18 03:59:36;;;;;;;1999.90;999.90;;;19.40;75.60;;;;;;5054198;28;20020;-71
2023/06/18 04:02:03;;;;;;;1999.90;999.90;;;19.50;75.10;;;;;;5054567;28;20029;-70
2023/06/18 04:04:30;;;;;;;1999.90;999.90;;;19.30;74.70;;;;;;5048573;28;20399;-69
2023/06/18 04:06:58;;;;;;;1999.90;999.90;;;19.20;75.50;;;;;;5049830;28;20087;-72
2023/06/18 04:09:25;;;;;;;1999.90;999.90;;;19.20;75.30;;;;;;5055264;28;20024;-70
2023/06/18 04:11:54;;;;;;;1999.90;999.90;;;19.10;75.90;;;;;;5052468;28;20084;-70
2023/06/18 04:14:21;;;;;;;1999.90;999.90;;;19.10;76.40;;;;;;5061830;28;20124;-71
2023/06/18 04:16:48;;;;;;;1999.90;999.90;;;19.10;75.60;;;;;;5049319;28;20492;-69
2023/06/18 04:19:16;;;;;;;1999.90;999.90;;;19.20;75.50;;;;;;5060361;28;20115;-71
2023/06/18 04:21:43;;;;;;;1999.90;999.90;;;19.10;75.60;;;;;;5054908;28;20163;-69
2023/06/18 04:24:10;;;;;;;1999.90;999.90;;;19.00;76.10;;;;;;5060838;28;20028;-70
2023/06/18 04:26:38;;;;;;;1999.90;999.90;;;19.00;76.40;;;;;;5061747;28;20021;-73
2023/06/18 04:29:05;;;;;;;1999.90;999.90;;;19.00;77.00;;;;;;5059515;28;20032;-69
2023/06/18 04:31:33;;;;;;;1999.90;999.90;;;19.00;77.50;;;;;;5058742;28;20040;-72
2023/06/18 04:34:00;;;;;;;1999.90;999.90;;;18.90;77.60;;;;;;5051991;28;20500;-70
2023/06/18 04:36:27;;;;;;;1999.90;999.90;;;18.80;76.60;;;;;;5061000;28;20104;-71
2023/06/18 04:38:55;;;;;;;1999.90;999.90;;;18.70;76.60;;;;;;5058980;28;20078;-71
2023/06/18 04:41:22;;;;;;;1999.90;999.90;;;18.60;76.90;;;;;;5060900;28;20036;-70
2023/06/18 04:43:50;;;;;;;1999.90;999.90;;;18.60;77.50;;;;;;5062712;28;20032;-71
2023/06/18 04:46:17;;;;;;;1999.90;999.90;;;18.50;77.10;;;;;;5052501;28;20021;-75
2023/06/18 04:48:46;;;;;;;1999.90;999.90;;;18.50;77.50;;;;;;5063345;28;20029;-71
2023/06/18 04:51:14;;;;;;;1999.90;999.90;;;18.40;77.60;;;;;;5058555;28;20032;-70
2023/06/18 04:53:41;;;;;;;1999.90;999.90;;;18.30;77.60;;;;;;5061035;28;20025;-72
2023/06/18 04:56:08;;;;;;;1999.90;999.90;;;18.30;77.90;;;;;;5055469;28;20094;-71
2023/06/18 04:58:39;;;;;;;1999.90;999.90;;;18.30;78.10;;;;;;5056363;28;20098;-72
2023/06/18 05:01:06;;;;;;;1999.90;999.90;;;18.20;78.40;;;;;;5052891;28;20017;-72
2023/06/18 05:03:33;;;;;;;1999.90;999.90;;;18.20;78.00;;;;;;5052189;28;20068;-71
2023/06/18 05:06:03;;;;;;;1999.90;999.90;;;18.10;78.80;;;;;;5047985;28;20096;-72
2023/06/18 05:08:30;;;;;;;1999.90;999.90;;;18.00;78.20;;;;;;5052077;28;20036;-70
2023/06/18 05:10:57;;;;;;;1999.90;999.90;;;17.80;77.50;;;;;;5049972;28;20499;-70
2023/06/18 05:13:25;;;;;;;1999.90;999.90;;;17.60;77.70;;;;;;5063568;28;20037;-71
2023/06/18 05:15:53;;;;;;;1999.90;999.90;;;17.60;77.70;;;;;;5057229;28;20040;-71
2023/06/18 05:18:20;;;;;;;1999.90;999.90;;;17.60;77.90;;;;;;5062629;28;20047;-71
2023/06/18 05:20:47;;;;;;;1999.90;999.90;;;17.60;78.30;;;;;;5054618;28;20140;-72
2023/06/18 05:23:14;;;;;;;1999.90;999.90;;;17.60;78.60;;;;;;5056510;28;20056;-72
2023/06/18 05:25:42;;;;;;;1999.90;999.90;;;17.60;78.50;;;;;;5060018;28;20029;-72
2023/06/18 05:28:09;;;;;;;1999.90;999.90;;;17.60;78.70;;;;;;5059576;28;20021;-73
2023/06/18 05:30:37;;;;;;;1999.90;999.90;;;17.60;78.50;;;;;;5051915;28;20106;-70
2023/06/18 05:33:04;;;;;;;1999.90;999.90;;;17.60;79.20;;;;;;5051290;28;20033;-72
2023/06/18 05:35:31;;;;;;;1999.90;999.90;;;17.60;79.20;;;;;;5072111;28;20035;-71
2023/06/18 05:37:59;;;;;;;1999.90;999.90;;;17.60;79.30;;;;;;5048707;28;20033;-70
2023/06/18 05:40:26;;;;;;;1999.90;999.90;;;17.70;79.50;;;;;;5061649;28;20489;-74
2023/06/18 05:42:53;;;;;;;1999.90;999.90;;;17.70;79.50;;;;;;5052575;28;20029;-73
2023/06/18 05:45:21;;;;;;;1999.90;999.90;;;17.60;79.50;;;;;;5044256;28;20033;-71
2023/06/18 05:47:48;;;;;;;1999.90;999.90;;;17.60;80.00;;;;;;5051043;28;20115;-74
2023/06/18 05:50:15;;;;;;;1999.90;999.90;;;17.60;80.60;;;;;;5049577;28;20033;-72
2023/06/18 05:52:43;;;;;;;1999.90;999.90;;;17.50;80.60;;;;;;5043974;28;20144;-72
2023/06/18 05:55:10;;;;;;;1999.90;999.90;;;17.40;80.70;;;;;;5043324;28;20661;-71
2023/06/18 05:57:37;;;;;;;1999.90;999.90;;;17.30;80.90;;;;;;5043944;28;20025;-78
2023/06/18 06:00:05;;;;;;;1999.90;999.90;;;17.20;81.60;;;;;;5043994;28;20032;-72
2023/06/18 06:02:33;;;;;;;1999.90;999.90;;;17.10;81.80;;;;;;5048238;28;20040;-76
2023/06/18 06:05:00;;;;;;;1999.90;999.90;;;17.20;81.80;;;;;;5059588;28;20036;-71
2023/06/18 06:07:28;;;;;;;1999.90;999.90;;;17.20;81.70;;;;;;5052035;28;20032;-70
2023/06/18 06:09:56;;;;;;;1999.90;999.90;;;17.30;82.00;;;;;;5042169;28;20051;-71
2023/06/18 06:12:24;;;;;;;1999.90;999.90;;;17.30;82.10;;;;;;5047159;28;20486;-72
2023/06/18 06:14:51;;;;;;;1999.90;999.90;;;17.30;82.30;;;;;;5059387;28;20519;-72
2023/06/18 06:17:19;;;;;;;1999.90;999.90;;;17.20;82.40;;;;;;5058721;28;20029;-72
2023/06/18 06:19:46;;;;;;;1999.90;999.90;;;17.20;82.80;;;;;;5054372;28;20028;-74
2023/06/18 06:22:14;;;;;;;1999.90;999.90;;;17.20;83.00;;;;;;5059076;28;20111;-72
2023/06/18 06:24:41;;;;;;;1999.90;999.90;;;17.10;83.30;;;;;;5051850;28;20176;-73
2023/06/18 06:27:08;;;;;;;1999.90;999.90;;;17.10;83.80;;;;;;5049148;28;20041;-75
2023/06/18 06:29:36;;;;;;;1999.90;999.90;;;16.90;83.90;;;;;;5054671;28;20496;-75
2023/06/18 06:32:03;;;;;;;1999.90;999.90;;;16.70;84.40;;;;;;5055759;28;20040;-79
2023/06/18 06:34:31;;;;;;;1999.90;999.90;;;16.60;84.60;;;;;;5057928;28;20029;-73
2023/06/18 06:36:58;;;;;;;1999.90;999.90;;;16.40;85.30;;;;;;5053719;28;20028;-71
2023/06/18 06:39:25;;;;;;;1999.90;999.90;;;16.20;85.60;;;;;;5058089;28;20021;-74
2023/06/18 06:41:53;;;;;;;1999.90;999.90;;;16.00;85.60;;;;;;5054842;28;20039;-72
2023/06/18 06:44:20;;;;;;;1999.90;999.90;;;15.80;86.00;;;;;;5058174;28;20023;-73
2023/06/18 06:46:47;;;;;;;1999.90;999.90;;;15.60;86.60;;;;;;5058574;28;20052;-73
2023/06/18 06:49:14;;;;;;;1999.90;999.90;;;15.40;86.80;;;;;;5056498;28;20025;-77
2023/06/18 06:51:42;;;;;;;1999.90;999.90;;;15.30;87.10;;;;;;5057772;28;20043;-72
2023/06/18 06:54:10;;;;;;;1999.90;999.90;;;15.10;87.40;;;;;;5054045;28;20020;-74
2023/06/18 06:56:38;;;;;;;1999.90;999.90;;;14.90;87.70;;;;;;5055230;28;20388;-72
2023/06/18 06:59:05;;;;;;;1999.90;999.90;;;14.80;87.80;;;;;;5058611;28;20114;-73
2023/06/18 07:01:32;;;;;;;1999.90;999.90;;;14.60;88.00;;;;;;5054853;28;20567;-75
2023/06/18 07:04:00;;;;;;;1999.90;999.90;;;14.50;88.80;;;;;;5054682;28;20056;-76
2023/06/18 07:06:27;;;;;;;1999.90;999.90;;;14.30;88.90;;;;;;5050680;28;20025;-70
2023/06/18 07:08:54;;;;;;;1999.90;999.90;;;14.20;89.20;;;;;;5053173;28;20032;-74
2023/06/18 07:11:22;;;;;;;1999.90;999.90;;;14.10;89.30;;;;;;5054018;28;20045;-72
2023/06/18 07:13:49;;;;;;;1999.90;999.90;;;14.00;89.80;;;;;;5054118;28;20021;-72
2023/06/18 07:16:16;;;;;;;1999.90;999.90;;;13.90;90.00;;;;;;5047207;28;20025;-73
2023/06/18 07:18:44;;;;;;;1999.90;999.90;;;13.80;90.20;;;;;;5056983;28;20376;-73
2023/06/18 07:21:11;;;;;;;1999.90;999.90;;;13.60;90.50;;;;;;5055209;28;20065;-76
2023/06/18 07:23:39;;;;;;;1999.90;999.90;;;13.50;90.60;;;;;;5063546;28;20025;-75
2023/06/18 07:26:06;;;;;;;1999.90;999.90;;;13.40;90.90;;;;;;5058971;28;20032;-74
2023/06/18 07:28:33;;;;;;;1999.90;999.90;;;13.20;91.40;;;;;;5062873;28;20029;-73
2023/06/18 07:31:01;;;;;;;1999.90;999.90;;;13.10;91.70;;;;;;5054844;28;20037;-73
2023/06/18 07:33:29;;;;;;;1999.90;999.90;;;13.00;91.70;;;;;;5053296;28;20040;-76
2023/06/18 07:36:02;;;;;;;1999.90;999.90;;;12.90;91.90;;;;;;5058071;28;20108;-80
2023/06/18 07:38:29;;;;;;;1999.90;999.90;;;12.80;92.00;;;;;;5055661;28;20049;-71
2023/06/18 07:40:57;;;;;;;1999.90;999.90;;;12.70;91.90;;;;;;5059130;28;20036;-73
2023/06/18 07:43:24;;;;;;;1999.90;999.90;;;12.70;92.10;;;;;;5061710;28;20029;-75
2023/06/18 07:45:52;;;;;;;1999.90;999.90;;;12.60;92.10;;;;;;5059966;28;20031;-74
2023/06/18 07:48:19;;;;;;;1999.90;999.90;;;12.50;92.20;;;;;;5050698;28;20028;-73
2023/06/18 07:50:46;;;;;;;1999.90;999.90;;;12.40;92.30;;;;;;5056586;28;20086;-72
2023/06/18 07:53:14;;;;;;;1999.90;999.90;;;12.40;92.40;;;;;;5056226;28;20062;-78
2023/06/18 07:55:41;;;;;;;1999.90;999.90;;;12.30;92.50;;;;;;5057680;28;20349;-70
2023/06/18 07:58:08;;;;;;;1999.90;999.90;;;12.20;92.70;;;;;;5057781;28;20033;-75
2023/06/18 08:00:35;;;;;;;1999.90;999.90;;;12.10;92.90;;;;;;5059659;28;20033;-77
2023/06/18 08:03:03;;;;;;;1999.90;999.90;;;12.00;93.00;;;;;;5060421;28;20044;-73
2023/06/18 08:05:30;;;;;;;1999.90;999.90;;;12.00;93.30;;;;;;5057684;28;20029;-71
2023/06/18 08:07:57;;;;;;;1999.90;999.90;;;11.80;93.20;;;;;;5060301;28;20025;-73
2023/06/18 08:10:25;;;;;;;1999.90;999.90;;;11.70;93.20;;;;;;5051010;28;20574;-73
2023/06/18 08:12:52;;;;;;;1999.90;999.90;;;11.60;93.40;;;;;;5059775;28;20033;-72
2023/06/18 08:15:20;;;;;;;1999.90;999.90;;;11.50;93.60;;;;;;5055500;28;20552;-75
2023/06/18 08:17:47;;;;;;;1999.90;999.90;;;11.50;93.80;;;;;;5053920;28;20115;-71
2023/06/18 08:20:14;;;;;;;1999.90;999.90;;;11.50;94.00;;;;;;5059739;28;20370;-75
2023/06/18 08:22:42;;;;;;;1999.90;999.90;;;11.40;94.00;;;;;;5064637;28;20502;-72
2023/06/18 08:25:09;;;;;;;1999.90;999.90;;;11.30;94.20;;;;;;5059054;28;20039;-73
2023/06/18 08:27:37;;;;;;;1999.90;999.90;;;11.30;94.10;;;;;;5060316;28;20400;-74
2023/06/18 08:30:05;;;;;;;1999.90;999.90;;;11.20;94.10;;;;;;5058994;28;20055;-79
2023/06/18 08:32:32;;;;;;;1999.90;999.90;;;11.20;94.10;;;;;;5058821;28;20048;-78
2023/06/18 08:35:01;;;;;;;1999.90;999.90;;;11.20;94.30;;;;;;5054947;28;20033;-76
2023/06/18 08:37:28;;;;;;;1999.90;999.90;;;11.10;94.40;;;;;;5054702;28;20079;-73
2023/06/18 08:39:55;;;;;;;1999.90;999.90;;;11.10;94.60;;;;;;5058212;28;20029;-73
2023/06/18 08:42:23;;;;;;;1999.90;999.90;;;11.00;94.70;;;;;;5058200;28;20043;-74
2023/06/18 08:44:53;;;;;;;1999.90;999.90;;;10.90;94.80;;;;;;5047255;28;20026;-73
2023/06/18 08:47:21;;;;;;;1999.90;999.90;;;10.70;94.90;;;;;;5054186;28;20029;-72
2023/06/18 08:49:51;;;;;;;1999.90;999.90;;;10.70;95.00;;;;;;5053186;28;20028;-72
2023/06/18 08:52:20;;;;;;;1999.90;999.90;;;10.60;95.00;;;;;;5052863;28;20028;-73
2023/06/18 08:54:54;;;;;;;1999.90;999.90;;;10.50;95.20;;;;;;5051895;28;20027;-72
2023/06/18 08:58:01;;;;;;;1999.90;999.90;;;10.40;95.40;;;;;;5059349;28;20122;-72
2023/06/18 09:00:29;;;;;;;1999.90;999.90;;;10.30;95.60;;;;;;5047527;28;20035;-72
2023/06/18 09:02:56;;;;;;;1999.90;999.90;;;10.20;95.80;;;;;;5056384;28;20057;-73
2023/06/18 09:05:26;;;;;;;1999.90;999.90;;;10.10;96.10;;;;;;5056537;28;20021;-74
2023/06/18 09:07:55;;;;;;;1999.90;999.90;;;10.00;96.70;;;;;;5060400;28;20024;-75
2023/06/18 09:10:23;;;;;;;1999.90;999.90;;;9.90;96.60;;;;;;5065434;28;20154;-75
2023/06/18 09:12:51;;;;;;;1999.90;999.90;;;9.90;96.80;;;;;;5060628;28;20040;-75
2023/06/18 09:15:19;;;;;;;1999.90;999.90;;;9.90;97.20;;;;;;5057121;28;20031;-74
2023/06/18 09:17:52;;;;;;;1999.90;999.90;;;9.90;97.40;;;;;;5064252;28;20420;-73
2023/06/18 09:20:21;;;;;;;1999.90;999.90;;;9.90;97.50;;;;;;5052697;28;20040;-74
2023/06/18 09:22:49;;;;;;;1999.90;999.90;;;9.90;97.60;;;;;;5062584;28;20091;-74
2023/06/18 09:25:20;;;;;;;1999.90;999.90;;;9.90;97.70;;;;;;5059388;28;20059;-73
2023/06/18 09:27:48;;;;;;;1999.90;999.90;;;10.00;97.80;;;;;;5062748;28;20032;-74
2023/06/18 09:30:20;;;;;;;1999.90;999.90;;;10.00;97.70;;;;;;5058971;28;20025;-75
2023/06/18 09:32:48;;;;;;;1999.90;999.90;;;10.00;97.80;;;;;;5051735;28;20487;-74
2023/06/18 09:35:20;;;;;;;1999.90;999.90;;;10.10;97.70;;;;;;5058917;28;20479;-76
2023/06/18 09:37:47;;;;;;;1999.90;999.90;;;10.10;97.70;;;;;;5060176;28;20036;-73
2023/06/18 09:40:22;;;;;;;1999.90;999.90;;;10.10;97.70;;;;;;5054103;28;20031;-76
2023/06/18 09:42:50;;;;;;;1999.90;999.90;;;10.10;97.70;;;;;;5059917;28;20024;-74
2023/06/18 09:45:19;;;;;;;1999.90;999.90;;;10.00;97.80;;;;;;5057050;28;20388;-79
2023/06/18 09:47:47;;;;;;;1999.90;999.90;;;10.00;97.80;;;;;;5055175;28;20056;-75
2023/06/18 09:50:15;;;;;;;1999.90;999.90;;;9.90;97.90;;;;;;5060452;28;20025;-75
2023/06/18 09:52:47;;;;;;;1999.90;999.90;;;9.80;98.00;;;;;;5070083;28;20037;-73
2023/06/18 09:55:29;;;;;;;1999.90;999.90;;;9.70;98.30;;;;;;5057882;28;20646;-76
2023/06/18 09:57:57;;;;;;;1999.90;999.90;;;9.60;98.40;;;;;;5057959;28;20594;-76
2023/06/18 10:00:26;;;;;;;1999.90;999.90;;;9.50;98.70;;;;;;5052176;28;20124;-74
2023/06/18 10:03:03;;;;;;;1999.90;999.90;;;9.40;98.90;;;;;;5060200;28;20547;-75
2023/06/18 10:05:31;;;;;;;1999.90;999.90;;;9.30;99.20;;;;;;5054983;28;20059;-74
2023/06/18 10:07:58;;;;;;;1999.90;999.90;;;9.20;99.50;;;;;;5055682;28;20100;-83
2023/06/18 10:10:26;;;;;;;1999.90;999.90;;;9.20;99.60;;;;;;5065419;28;20559;-72
2023/06/18 10:12:56;;;;;;;1999.90;999.90;;;9.10;99.80;;;;;;5064028;28;20665;-78
2023/06/18 10:15:25;;;;;;;1999.90;999.90;;;9.00;99.90;;;;;;5052096;28;20476;-79
2023/06/18 10:17:56;;;;;;;1999.90;999.90;;;9.00;99.90;;;;;;5054641;28;20016;-74
2023/06/18 10:20:27;;;;;;;1999.90;999.90;;;8.90;99.90;;;;;;5056008;28;20396;-74
2023/06/18 10:22:58;;;;;;;1999.90;999.90;;;8.90;99.90;;;;;;5054653;28;20494;-71
2023/06/18 10:25:26;;;;;;;1999.90;999.90;;;8.80;99.90;;;;;;5048708;28;20033;-75
2023/06/18 10:27:55;;;;;;;1999.90;999.90;;;8.80;99.90;;;;;;5059947;28;20124;-78
2023/06/18 10:30:23;;;;;;;1999.90;999.90;;;8.70;99.90;;;;;;5051909;28;20037;-74
2023/06/18 10:32:51;;;;;;;1999.90;999.90;;;8.60;99.90;;;;;;5053700;28;20048;-76
2023/06/18 10:35:20;;;;;;;1999.90;999.90;;;8.60;99.90;;;;;;5044594;28;20036;-74
2023/06/18 10:37:48;;;;;;;1999.90;999.90;;;8.60;99.90;;;;;;5046343;28;21269;-74
2023/06/18 10:40:15;;;;;;;1999.90;999.90;;;8.50;99.90;;;;;;5049947;28;20106;-77
2023/06/18 10:42:47;;;;;;;1999.90;999.90;;;8.50;99.90;;;;;;5046198;28;20025;-74
2023/06/18 10:45:16;;;;;;;1999.90;999.90;;;8.40;99.90;;;;;;5058467;28;20024;-82
2023/06/18 10:47:44;;;;;;;1999.90;999.90;;;8.40;99.90;;;;;;5052263;28;20040;-75
2023/06/18 10:50:18;;;;;;;1999.90;999.90;;;8.40;99.90;;;;;;5051486;28;20112;-77
2023/06/18 10:52:51;;;;;;;1999.90;999.90;;;8.30;99.90;;;;;;5051787;28;20112;-75
2023/06/18 10:55:26;;;;;;;1999.90;999.90;;;8.30;99.90;;;;;;5052456;28;20028;-77
2023/06/18 10:58:05;;;;;;;1999.90;999.90;;;8.30;99.90;;;;;;5053684;28;20668;-77
2023/06/18 11:00:44;;;;;;;1999.90;999.90;;;8.30;99.90;;;;;;5065936;28;20024;-75
2023/06/18 11:03:19;;;;;;;1999.90;999.90;;;8.30;99.90;;;;;;5058063;28;20044;-80
2023/06/18 11:05:51;;;;;;;1999.90;999.90;;;8.30;99.90;;;;;;5054151;28;20029;-73
2023/06/18 11:08:27;;;;;;;1999.90;999.90;;;8.20;99.90;;;;;;5054550;28;20061;-75
2023/06/18 11:11:03;;;;;;;;;;;8.20;99.90;;;;;;5063641;28;20032;-73
2023/06/18 11:13:32;;;;;;;1999.90;999.90;;;8.10;99.90;;;;;;5060036;28;19923;-77
2023/06/18 11:16:13;;;;;;;1999.90;999.90;;;8.10;99.90;;;;;;5056804;28;20027;-76
2023/06/18 11:18:43;;;;;;;1999.90;999.90;;;8.10;99.90;;;;;;5058015;28;20040;-76
2023/06/18 11:21:18;;;;;;;1999.90;999.90;;;8.00;99.90;;;;;;5050147;28;20025;-75
2023/06/18 11:23:47;;;;;;;1999.90;999.90;;;8.00;99.90;;;;;;5062939;28;20033;-75
2023/06/18 11:26:17;;;;;;;1999.90;999.90;;;7.90;99.90;;;;;;5059084;28;20857;-74
2023/06/18 11:28:46;;;;;;;1999.90;999.90;;;7.90;99.90;;;;;;5058582;28;20121;-72
2023/06/18 11:31:14;;;;;;;1999.90;999.90;;;7.80;99.90;;;;;;5052590;28;20029;-73
2023/06/18 11:33:49;;;;;;;1999.90;999.90;;;7.70;99.90;;;;;;5062090;28;20032;-74
2023/06/18 11:36:18;;;;;;;1999.90;999.90;;;7.70;99.90;;;;;;5055950;28;20035;-74
2023/06/18 11:38:47;;;;;;;1999.90;999.90;;;7.70;99.90;;;;;;5057018;28;20040;-73
2023/06/18 11:41:21;;;;;;;1999.90;999.90;;;7.70;99.90;;;;;;5059694;28;20029;-75
2023/06/18 11:43:51;;;;;;;1999.90;999.90;;;7.70;99.90;;;;;;5060685;28;20102;-74
2023/06/18 11:46:38;;;;;;;1999.90;999.90;;;7.60;99.90;;;;;;5049257;28;20032;-75
2023/06/18 11:49:14;;;;;;;1999.90;999.90;;;7.60;99.90;;;;;;5051292;28;20041;-74
2023/06/18 11:51:41;;;;;;;1999.90;999.90;;;7.50;99.90;;;;;;5051996;28;20032;-74
2023/06/18 11:54:09;;;;;;;1999.90;999.90;;;7.40;99.90;;;;;;5056670;28;20033;-75
2023/06/18 11:56:37;;;;;;;1999.90;999.90;;;7.30;99.90;;;;;;5051124;28;20025;-72
2023/06/18 11:59:04;;;;;;;1999.90;999.90;;;7.20;99.90;;;;;;5052743;28;20467;-71
2023/06/18 12:01:32;;;;;;;1999.90;999.90;;;7.20;99.90;;;;;;5058681;28;20029;-73
2023/06/18 12:04:04;;;;;;;1999.90;999.90;;;7.10;99.90;;;;;;5053592;28;20466;-70
2023/06/18 12:06:32;;;;;;;1999.90;999.90;;;7.00;99.90;;;;;;5044523;28;20060;-70
2023/06/18 12:09:07;;;;;;;1999.90;999.90;;;6.90;99.90;;;;;;5055066;28;20095;-70